Terminal Aerodrome Forecast
Issued by NWS St Louis, MO

Home | Current Version | Previous Version | Text Only | Print | Product List | Glossary On
Versions: 1 2 3 4 5 6 7 8 9 10 11 12 13 14 15 16 17 18 19 20 21 22 23 24 25 26
358
FTUS43 KLSX 260311 AAA
TAFSTL
TAF AMD
KSTL 260311Z 2603/2706 VRB04KT P6SM VCSH FEW050 BKN120
     FM260600 VRB04KT P6SM SCT050 BKN250
     FM261200 VRB04KT P6SM BKN040
     FM261800 09006KT P6SM BKN040=

USA.gov is the U.S. government's official web portal to all federal, state and local government web resources and services.